createdAt,value
2023-04-15T00:07:32.000Z,23.60
2023-04-15T00:17:32.000Z,23.00
2023-04-15T00:37:32.000Z,24.10
2023-04-15T00:47:32.000Z,25.50
2023-04-15T00:57:33.000Z,23.90
2023-04-15T01:07:33.000Z,25.40
2023-04-15T01:17:33.000Z,26.60
2023-04-15T01:27:33.000Z,24.10
2023-04-15T01:37:34.000Z,25.60
2023-04-15T01:47:34.000Z,23.10
2023-04-15T02:07:34.000Z,21.50
2023-04-15T02:17:35.000Z,23.60
2023-04-15T02:27:35.000Z,20.60
2023-04-15T02:37:35.000Z,20.00
2023-04-15T02:47:35.000Z,20.40
2023-04-15T02:57:36.000Z,22.30
2023-04-15T03:07:36.000Z,26.30
2023-04-15T03:17:36.000Z,25.70
2023-04-15T03:37:37.000Z,23.10
2023-04-15T03:47:37.000Z,21.10
2023-04-15T03:57:37.000Z,21.00
2023-04-15T04:07:38.000Z,20.50
2023-04-15T04:17:38.000Z,21.80
2023-04-15T04:27:38.000Z,20.90
2023-04-15T04:37:38.000Z,22.00
2023-04-15T04:47:39.000Z,20.70
2023-04-15T05:07:39.000Z,24.20
2023-04-15T05:17:40.000Z,24.70
2023-04-15T05:27:40.000Z,26.20
2023-04-15T05:37:40.000Z,25.70
2023-04-15T05:47:40.000Z,25.20
2023-04-15T05:57:41.000Z,25.20
2023-04-15T06:07:41.000Z,24.90
2023-04-15T06:38:17.000Z,26.10
2023-04-15T06:38:17.000Z,31.30
2023-04-15T06:48:18.000Z,36.60
2023-04-15T08:53:35.000Z,41.10
2023-04-15T09:30:03.000Z,56.60
2023-04-15T10:16:30.000Z,68.30
2023-04-15T10:52:59.000Z,74.30
2023-04-15T13:41:27.000Z,20.00
2023-04-15T13:41:27.000Z,21.10
2023-04-15T13:51:27.000Z,20.50
2023-04-15T14:01:27.000Z,21.60
2023-04-15T14:11:27.000Z,19.50
2023-04-15T14:21:27.000Z,18.30
2023-04-15T14:31:27.000Z,18.10
2023-04-15T14:41:27.000Z,19.00
2023-04-15T14:51:27.000Z,21.20
2023-04-15T15:11:26.000Z,19.70
2023-04-15T15:21:26.000Z,21.60
2023-04-15T15:31:26.000Z,22.00
2023-04-15T15:41:26.000Z,22.00
2023-04-15T15:51:26.000Z,21.30
2023-04-15T16:01:26.000Z,22.20
2023-04-15T16:11:26.000Z,21.50
2023-04-15T16:21:26.000Z,20.50
2023-04-15T16:41:26.000Z,22.50
2023-04-15T16:51:26.000Z,24.10
2023-04-15T17:01:25.000Z,24.70
2023-04-15T17:11:25.000Z,28.20
2023-04-15T17:21:25.000Z,27.60
2023-04-15T17:31:25.000Z,27.10
2023-04-15T17:41:25.000Z,27.50
2023-04-15T17:51:25.000Z,30.20
2023-04-15T18:11:25.000Z,32.20
2023-04-15T18:21:25.000Z,34.40
2023-04-15T18:31:25.000Z,37.40
2023-04-15T18:41:25.000Z,37.50
2023-04-15T19:17:00.000Z,38.90
2023-04-15T19:17:00.000Z,37.90
2023-04-15T19:27:00.000Z,40.70
2023-04-15T19:37:01.000Z,39.80
2023-04-15T19:47:01.000Z,44.00
2023-04-15T19:57:01.000Z,48.40
2023-04-15T21:25:50.000Z,44.70
2023-04-15T21:25:50.000Z,51.40
2023-04-15T21:35:50.000Z,51.90
2023-04-15T21:35:50.000Z,51.90
2023-04-15T21:45:50.000Z,46.10
2023-04-15T21:55:50.000Z,47.40
2023-04-15T22:05:49.000Z,52.20
2023-04-15T22:15:49.000Z,50.30
2023-04-15T22:25:49.000Z,45.00
2023-04-15T22:35:49.000Z,44.80
2023-04-15T23:26:41.000Z,40.80
2023-04-15T23:41:58.000Z,44.70
2023-04-15T23:41:58.000Z,45.50
2023-04-15T23:51:58.000Z,46.50
